createdAt,value
2023-05-02T00:01:07.775Z,54.64
2023-05-02T00:12:22.198Z,55.02
2023-05-02T00:17:22.263Z,55.17
2023-05-02T00:22:22.065Z,55.28
2023-05-02T00:27:22.044Z,55.37
2023-05-02T00:32:22.003Z,55.35
2023-05-02T00:37:21.881Z,55.37
2023-05-02T00:42:21.820Z,55.39
2023-05-02T00:47:21.772Z,55.48
2023-05-02T00:52:21.658Z,55.54
2023-05-02T00:57:21.659Z,55.61
2023-05-02T01:02:21.597Z,55.66
2023-05-02T01:07:21.474Z,55.76
2023-05-02T01:12:21.386Z,55.90
2023-05-02T01:17:21.453Z,56.01
2023-05-02T01:22:21.291Z,56.11
2023-05-02T01:27:21.230Z,56.26
2023-05-02T01:32:21.151Z,56.40
2023-05-02T01:37:21.121Z,56.49
2023-05-02T01:42:21.027Z,56.53
2023-05-02T01:47:21.038Z,56.55
2023-05-02T01:52:20.861Z,56.59
2023-05-02T01:57:20.826Z,56.67
2023-05-02T02:02:20.752Z,56.75
2023-05-02T02:07:20.736Z,56.87
2023-05-02T02:12:20.614Z,56.99
2023-05-02T02:17:20.558Z,57.10
2023-05-02T02:22:20.479Z,57.22
2023-05-02T02:27:20.463Z,57.28
2023-05-02T02:32:20.388Z,57.31
2023-05-02T02:37:20.312Z,57.61
2023-05-02T02:42:20.204Z,57.79
2023-05-02T02:47:20.155Z,57.92
2023-05-02T02:52:20.142Z,58.10
2023-05-02T02:57:20.038Z,58.23
2023-05-02T03:02:19.964Z,58.34
2023-05-02T03:07:19.874Z,58.38
2023-05-02T03:12:19.844Z,58.43
2023-05-02T03:17:20.436Z,58.53
2023-05-02T03:22:19.708Z,58.69
2023-05-02T03:27:19.641Z,58.83
2023-05-02T03:32:19.557Z,58.88
2023-05-02T03:37:19.500Z,58.86
2023-05-02T03:42:19.429Z,58.93
2023-05-02T03:47:19.371Z,58.96
2023-05-02T03:52:19.271Z,58.99
2023-05-02T03:57:19.217Z,58.96
2023-05-02T04:02:19.266Z,58.94
2023-05-02T04:07:19.114Z,59.03
2023-05-02T04:12:19.018Z,59.11
2023-05-02T04:17:48.184Z,58.97
2023-05-02T04:22:40.418Z,59.17
2023-05-02T04:27:40.343Z,59.52
2023-05-02T04:32:40.347Z,59.48
2023-05-02T04:37:40.207Z,59.47
2023-05-02T04:42:40.178Z,59.49
2023-05-02T04:47:40.189Z,59.52
2023-05-02T04:52:40.011Z,59.64
2023-05-02T04:57:39.948Z,59.75
2023-05-02T05:02:39.932Z,59.73
2023-05-02T05:07:39.759Z,59.69
2023-05-02T05:12:39.734Z,59.70
2023-05-02T05:17:39.753Z,59.71
2023-05-02T05:22:39.618Z,59.71
2023-05-02T05:27:39.511Z,59.76
2023-05-02T05:32:39.527Z,59.78
2023-05-02T05:37:39.414Z,59.73
2023-05-02T05:42:39.438Z,59.75
2023-05-02T05:47:39.395Z,59.86
2023-05-02T05:52:39.203Z,59.92
2023-05-02T05:57:39.127Z,59.99
2023-05-02T06:02:39.240Z,60.11
2023-05-02T06:07:39.004Z,60.00
2023-05-02T06:12:38.933Z,59.85
2023-05-02T06:17:38.939Z,59.70
2023-05-02T06:22:38.796Z,59.74
2023-05-02T06:27:38.725Z,59.86
2023-05-02T06:32:38.713Z,59.77
2023-05-02T06:37:38.601Z,59.76
2023-05-02T06:42:38.570Z,59.77
2023-05-02T06:47:38.539Z,59.95
2023-05-02T06:52:38.404Z,59.99
2023-05-02T06:57:38.297Z,60.03
2023-05-02T07:02:38.379Z,60.03
2023-05-02T07:07:38.163Z,59.95
2023-05-02T07:12:38.126Z,59.63
2023-05-02T07:17:38.061Z,58.89
2023-05-02T07:22:37.969Z,58.65
2023-05-02T07:27:37.937Z,58.66
2023-05-02T07:32:37.948Z,57.99
2023-05-02T07:37:37.824Z,56.72
2023-05-02T07:42:37.798Z,55.29
2023-05-02T07:47:37.759Z,54.94
2023-05-02T07:52:37.644Z,56.55
2023-05-02T07:57:37.539Z,57.00
2023-05-02T08:02:37.609Z,56.39
2023-05-02T08:07:37.540Z,53.35
2023-05-02T08:12:37.320Z,52.94
2023-05-02T08:17:37.283Z,45.04
2023-05-02T08:22:37.196Z,46.75
2023-05-02T08:27:37.114Z,47.22
2023-05-02T08:32:37.152Z,42.88
2023-05-02T08:37:37.007Z,42.66
2023-05-02T08:42:36.949Z,45.25
2023-05-02T08:47:36.919Z,45.67
2023-05-02T08:52:36.794Z,45.21
2023-05-02T08:57:36.788Z,46.00
2023-05-02T09:02:36.715Z,44.48
2023-05-02T09:07:36.917Z,42.12
2023-05-02T09:12:36.528Z,45.37
2023-05-02T09:17:36.553Z,48.05
2023-05-02T09:22:36.421Z,49.40
2023-05-02T09:27:36.358Z,49.93
2023-05-02T09:32:36.347Z,49.05
2023-05-02T09:37:36.259Z,48.43
2023-05-02T09:42:36.139Z,47.34
2023-05-02T09:47:36.099Z,44.34
2023-05-02T09:52:35.988Z,42.18
2023-05-02T09:57:35.935Z,44.82
2023-05-02T10:02:36.117Z,45.61
2023-05-02T10:07:35.784Z,45.27
2023-05-02T10:12:35.713Z,45.60
2023-05-02T10:17:35.738Z,45.81
2023-05-02T10:22:35.589Z,45.33
2023-05-02T10:27:35.569Z,44.13
2023-05-02T10:32:35.525Z,43.45
2023-05-02T10:37:35.431Z,45.09
2023-05-02T10:42:35.396Z,46.32
2023-05-02T10:47:35.321Z,46.68
2023-05-02T10:52:35.191Z,46.49
2023-05-02T10:57:35.171Z,46.21
2023-05-02T11:02:35.175Z,45.51
2023-05-02T11:07:35.003Z,43.94
2023-05-02T11:12:34.946Z,44.47
2023-05-02T11:17:34.972Z,44.24
2023-05-02T11:22:35.161Z,42.27
2023-05-02T11:27:34.734Z,42.42
2023-05-02T11:32:34.714Z,42.38
2023-05-02T11:37:34.633Z,41.84
2023-05-02T11:42:34.542Z,42.09
2023-05-02T11:47:34.575Z,44.12
2023-05-02T11:52:34.445Z,44.03
2023-05-02T11:57:34.333Z,40.30
2023-05-02T12:02:34.347Z,40.48
2023-05-02T12:07:34.232Z,41.76
2023-05-02T12:12:34.123Z,38.80
2023-05-02T12:17:34.082Z,34.06
2023-05-02T12:22:34.007Z,36.05
2023-05-02T12:27:33.934Z,36.80
2023-05-02T12:32:33.923Z,36.69
2023-05-02T12:37:33.840Z,38.53
2023-05-02T12:42:33.720Z,39.30
2023-05-02T12:47:33.714Z,39.69
2023-05-02T12:52:33.650Z,40.40
2023-05-02T12:57:33.527Z,40.18
2023-05-02T13:02:33.514Z,38.00
2023-05-02T13:07:33.410Z,38.17
2023-05-02T13:12:33.317Z,39.75
2023-05-02T13:17:33.474Z,40.31
2023-05-02T13:22:33.237Z,40.83
2023-05-02T13:27:33.120Z,40.98
2023-05-02T13:32:33.151Z,40.44
2023-05-02T13:37:33.035Z,40.55
2023-05-02T13:42:32.922Z,40.71
2023-05-02T13:47:32.944Z,40.20
2023-05-02T13:52:32.823Z,40.45
2023-05-02T13:57:32.738Z,40.73
2023-05-02T14:02:32.723Z,40.90
2023-05-02T14:07:32.647Z,41.02
2023-05-02T14:12:32.557Z,41.13
2023-05-02T14:17:32.554Z,41.86
2023-05-02T14:22:32.504Z,42.06
2023-05-02T14:27:32.336Z,41.03
2023-05-02T14:32:32.298Z,40.10
2023-05-02T14:37:32.232Z,37.43
2023-05-02T14:42:32.129Z,36.65
2023-05-02T14:47:32.247Z,36.72
2023-05-02T14:52:32.064Z,38.87
2023-05-02T14:57:32.047Z,39.42
2023-05-02T15:02:31.965Z,38.04
2023-05-02T15:07:31.952Z,37.13
2023-05-02T15:12:31.740Z,36.67
2023-05-02T15:17:31.688Z,37.58
2023-05-02T15:22:31.603Z,38.12
2023-05-02T15:27:31.547Z,38.54
2023-05-02T15:32:31.521Z,39.27
2023-05-02T15:37:31.421Z,39.59
2023-05-02T15:42:31.400Z,38.75
2023-05-02T15:47:31.403Z,37.69
2023-05-02T15:52:31.285Z,37.15
2023-05-02T15:57:31.150Z,36.63
2023-05-02T16:02:31.113Z,36.59
2023-05-02T16:07:31.064Z,36.48
2023-05-02T16:12:31.234Z,37.02
2023-05-02T16:17:30.894Z,38.15
2023-05-02T16:22:30.830Z,39.29
2023-05-02T16:27:30.757Z,38.85
2023-05-02T16:32:30.886Z,39.04
2023-05-02T16:37:30.618Z,38.88
2023-05-02T16:42:30.556Z,38.86
2023-05-02T16:47:30.500Z,38.98
2023-05-02T16:52:30.702Z,39.08
2023-05-02T16:57:30.357Z,39.65
2023-05-02T17:02:30.371Z,39.64
2023-05-02T17:07:30.306Z,39.61
2023-05-02T17:12:30.156Z,39.67
2023-05-02T17:17:30.182Z,39.76
2023-05-02T17:22:30.033Z,39.97
2023-05-02T17:27:30.729Z,40.17
2023-05-02T17:32:29.965Z,40.39
2023-05-02T17:37:29.821Z,40.56
2023-05-02T17:42:29.736Z,40.87
2023-05-02T17:47:29.808Z,41.14
2023-05-02T17:52:29.713Z,41.42
2023-05-02T17:57:29.614Z,40.44
2023-05-02T18:02:29.623Z,39.55
2023-05-02T18:07:29.448Z,39.43
2023-05-02T18:12:29.383Z,39.62
2023-05-02T18:17:29.403Z,40.12
2023-05-02T18:22:29.232Z,41.38
2023-05-02T18:27:29.198Z,42.10
2023-05-02T18:32:29.144Z,42.72
2023-05-02T18:37:29.078Z,43.21
2023-05-02T18:42:29.017Z,43.62
2023-05-02T18:47:28.967Z,43.93
2023-05-02T18:52:28.851Z,44.23
2023-05-02T18:57:28.748Z,44.54
2023-05-02T19:02:28.774Z,44.86
2023-05-02T19:07:28.651Z,45.10
2023-05-02T19:12:28.605Z,45.39
2023-05-02T19:17:28.610Z,45.73
2023-05-02T19:22:28.451Z,46.03
2023-05-02T19:27:28.360Z,46.26
2023-05-02T19:32:28.326Z,46.49
2023-05-02T19:37:28.294Z,46.66
2023-05-02T19:42:28.192Z,46.86
2023-05-02T19:47:28.178Z,46.99
2023-05-02T19:52:28.052Z,47.15
2023-05-02T19:57:27.977Z,47.30
2023-05-02T20:02:28.061Z,47.44
2023-05-02T20:07:27.858Z,47.62
2023-05-02T20:12:27.766Z,47.78
2023-05-02T20:17:27.827Z,47.96
2023-05-02T20:22:27.670Z,48.11
2023-05-02T20:27:27.546Z,48.24
2023-05-02T20:32:27.562Z,48.38
2023-05-02T20:37:27.450Z,48.55
2023-05-02T20:42:27.425Z,48.70
2023-05-02T20:47:27.333Z,48.79
2023-05-02T20:52:27.246Z,48.79
2023-05-02T20:57:27.230Z,48.88
2023-05-02T21:02:27.137Z,48.99
2023-05-02T21:07:27.059Z,49.14
2023-05-02T21:12:27.016Z,49.22
2023-05-02T21:17:26.911Z,49.33
2023-05-02T21:22:26.904Z,49.36
2023-05-02T21:27:26.809Z,49.48
2023-05-02T21:32:26.774Z,49.61
2023-05-02T21:37:26.644Z,49.76
2023-05-02T21:42:26.592Z,49.77
2023-05-02T21:47:26.538Z,49.81
2023-05-02T21:52:26.417Z,49.88
2023-05-02T21:57:26.354Z,49.93
2023-05-02T22:02:26.389Z,50.00
2023-05-02T22:07:26.231Z,50.06
2023-05-02T22:12:26.179Z,50.12
2023-05-02T22:17:27.126Z,50.22
2023-05-02T22:22:26.062Z,50.30
2023-05-02T22:27:25.964Z,50.42
2023-05-02T22:32:26.622Z,50.49
2023-05-02T22:37:25.831Z,50.52
2023-05-02T22:42:25.787Z,50.59
2023-05-02T22:47:25.740Z,50.67
2023-05-02T22:52:25.684Z,50.70
2023-05-02T22:57:25.585Z,50.76
2023-05-02T23:02:25.599Z,50.77
2023-05-02T23:07:25.446Z,50.78
2023-05-02T23:12:26.237Z,50.76
2023-05-02T23:17:25.329Z,50.80
2023-05-02T23:22:25.290Z,50.81
2023-05-02T23:27:25.188Z,50.87
2023-05-02T23:32:25.100Z,50.95
2023-05-02T23:37:25.053Z,51.05
2023-05-02T23:42:25.004Z,51.15
2023-05-02T23:47:24.941Z,51.27
2023-05-02T23:52:24.847Z,51.32
2023-05-02T23:57:24.791Z,51.39
